createdAt,value
2023-01-06T00:00:16.571Z,0
2023-01-06T00:01:16.668Z,0
2023-01-06T00:02:18.188Z,0
2023-01-06T00:03:18.833Z,0
2023-01-06T00:04:19.365Z,0
2023-01-06T00:05:19.394Z,0
2023-01-06T00:06:20.919Z,0
2023-01-06T00:07:21.583Z,0
2023-01-06T00:08:21.784Z,0
2023-01-06T00:09:21.820Z,0
2023-01-06T00:10:22.733Z,0
2023-01-06T00:11:23.643Z,0
2023-01-06T00:12:24.139Z,0
2023-01-06T00:13:24.342Z,0
2023-01-06T00:14:24.263Z,0
2023-01-06T00:15:25.478Z,0
2023-01-06T00:16:26.284Z,0
2023-01-06T00:17:27.045Z,0
2023-01-06T00:18:27.259Z,0
2023-01-06T00:19:27.864Z,0
2023-01-06T00:20:28.093Z,0
2023-01-06T00:21:28.601Z,0
2023-01-06T00:22:29.099Z,0
2023-01-06T00:23:30.342Z,0
2023-01-06T00:24:30.684Z,0
2023-01-06T00:25:30.885Z,0
2023-01-06T00:26:31.370Z,0
2023-01-06T00:27:32.276Z,0
2023-01-06T00:28:34.450Z,0
2023-01-06T00:29:32.830Z,0
2023-01-06T00:30:33.785Z,0
2023-01-06T00:31:34.854Z,0
2023-01-06T00:32:35.087Z,0
2023-01-06T00:33:35.310Z,0
2023-01-06T00:34:35.648Z,0
2023-01-06T00:35:35.576Z,0
2023-01-06T00:36:36.781Z,0
2023-01-06T00:37:37.367Z,0
2023-01-06T00:38:38.579Z,0
2023-01-06T00:39:38.942Z,0
2023-01-06T00:40:38.872Z,0
2023-01-06T00:41:40.122Z,0
2023-01-06T00:42:40.334Z,0
2023-01-06T00:43:41.279Z,0
2023-01-06T00:44:42.217Z,0
2023-01-06T00:45:42.719Z,0
2023-01-06T00:46:43.428Z,0
2023-01-06T00:47:44.431Z,0
2023-01-06T00:49:00.009Z,0
2023-01-06T00:49:45.725Z,0
2023-01-06T00:50:46.027Z,0
2023-01-06T00:51:46.999Z,0
2023-01-06T00:52:47.311Z,0
2023-01-06T00:53:47.771Z,0
2023-01-06T00:54:48.404Z,0
2023-01-06T00:55:48.896Z,0
2023-01-06T00:56:49.587Z,0
2023-01-06T00:57:50.323Z,0
2023-01-06T00:58:51.805Z,0
2023-01-06T00:59:52.019Z,0
2023-01-06T01:00:52.249Z,0
2023-01-06T01:01:53.181Z,0
2023-01-06T01:02:53.923Z,0
2023-01-06T01:03:53.715Z,0
2023-01-06T01:04:55.098Z,0
2023-01-06T01:05:55.317Z,0
2023-01-06T01:06:56.296Z,0
2023-01-06T01:07:56.951Z,0
2023-01-06T01:08:57.508Z,0
2023-01-06T01:09:57.552Z,0
2023-01-06T01:10:59.053Z,0
2023-01-06T01:11:59.536Z,0
2023-01-06T01:12:59.476Z,0
2023-01-06T01:14:00.462Z,0
2023-01-06T01:15:00.690Z,0
2023-01-06T01:16:02.125Z,0
2023-01-06T01:17:02.479Z,0
2023-01-06T01:18:02.479Z,0
2023-01-06T01:19:03.417Z,0
2023-01-06T01:20:03.274Z,0
2023-01-06T01:21:03.911Z,0
2023-01-06T01:22:05.430Z,0
2023-01-06T01:23:05.469Z,0
2023-01-06T01:24:06.704Z,0
2023-01-06T01:25:06.780Z,0
2023-01-06T01:26:07.688Z,0
2023-01-06T01:27:07.902Z,0
2023-01-06T01:28:08.443Z,0
2023-01-06T01:29:08.663Z,0
2023-01-06T01:30:09.163Z,0
2023-01-06T01:31:09.560Z,0
2023-01-06T01:32:10.074Z,0
2023-01-06T01:33:10.695Z,0
2023-01-06T01:34:10.664Z,0
2023-01-06T01:35:11.721Z,0
2023-01-06T01:36:11.627Z,0
2023-01-06T01:37:12.561Z,0
2023-01-06T01:38:13.669Z,0
2023-01-06T01:39:13.891Z,0
2023-01-06T01:40:14.215Z,0
2023-01-06T01:41:14.420Z,0
2023-01-06T01:42:14.663Z,0
2023-01-06T01:43:15.888Z,0
2023-01-06T01:44:15.520Z,0
2023-01-06T01:45:17.215Z,0
2023-01-06T01:46:17.372Z,0
2023-01-06T01:47:17.534Z,0
2023-01-06T01:48:17.935Z,0
2023-01-06T01:49:18.443Z,0
2023-01-06T01:50:19.545Z,0
2023-01-06T01:51:19.488Z,0
2023-01-06T01:52:20.137Z,0
2023-01-06T01:53:21.224Z,0
2023-01-06T01:54:21.549Z,0
2023-01-06T01:55:22.313Z,0
2023-01-06T01:56:22.975Z,0
2023-01-06T01:57:23.762Z,0
2023-01-06T01:58:23.771Z,0
2023-01-06T01:59:23.991Z,0
2023-01-06T02:00:23.925Z,0
2023-01-06T02:01:25.484Z,0
2023-01-06T02:02:26.826Z,0
2023-01-06T02:03:27.820Z,0
2023-01-06T02:04:27.730Z,0
2023-01-06T02:05:28.051Z,0
2023-01-06T02:06:28.873Z,0
2023-01-06T02:07:29.085Z,0
2023-01-06T02:08:30.003Z,0
2023-01-06T02:09:29.960Z,0
2023-01-06T02:10:30.303Z,0
2023-01-06T02:11:30.527Z,0
2023-01-06T02:12:31.449Z,0
2023-01-06T02:13:32.440Z,0
2023-01-06T02:14:33.094Z,0
2023-01-06T02:15:33.438Z,0
2023-01-06T02:16:33.853Z,0
2023-01-06T02:17:35.215Z,0
2023-01-06T02:18:35.386Z,0
2023-01-06T02:19:36.042Z,0
2023-01-06T02:20:36.847Z,0
2023-01-06T02:21:38.059Z,0
2023-01-06T02:22:38.554Z,0
2023-01-06T02:23:38.914Z,0
2023-01-06T02:24:40.127Z,0
2023-01-06T02:25:40.208Z,0
2023-01-06T02:26:41.426Z,0
2023-01-06T02:27:41.782Z,0
2023-01-06T02:28:43.325Z,0
2023-01-06T02:29:44.231Z,0
2023-01-06T02:30:44.457Z,0
2023-01-06T02:31:45.461Z,0
2023-01-06T02:32:46.062Z,0
2023-01-06T02:33:45.805Z,0
2023-01-06T02:34:46.450Z,0
2023-01-06T02:35:47.799Z,0
2023-01-06T02:36:48.293Z,0
2023-01-06T02:37:48.501Z,0
2023-01-06T02:38:48.251Z,0
2023-01-06T02:39:49.760Z,0
2023-01-06T02:40:50.399Z,0
2023-01-06T02:41:50.599Z,0
2023-01-06T02:42:51.557Z,0
2023-01-06T02:43:52.058Z,0
2023-01-06T02:44:52.005Z,0
2023-01-06T02:45:52.492Z,0
2023-01-06T02:46:53.034Z,0
2023-01-06T02:47:52.785Z,0
2023-01-06T02:48:53.470Z,0
2023-01-06T02:49:54.418Z,0
2023-01-06T02:50:54.729Z,0
2023-01-06T02:51:54.953Z,0
2023-01-06T02:52:55.916Z,0
2023-01-06T02:53:56.681Z,0
2023-01-06T02:54:57.905Z,0
2023-01-06T02:55:58.011Z,0
2023-01-06T02:56:58.651Z,0
2023-01-06T02:57:59.298Z,0
2023-01-06T02:59:00.325Z,0
2023-01-06T03:00:00.530Z,0
2023-01-06T03:01:01.734Z,0
2023-01-06T03:02:02.269Z,0
2023-01-06T03:03:02.201Z,0
2023-01-06T03:04:02.512Z,0
2023-01-06T03:05:02.912Z,0
2023-01-06T03:06:03.511Z,0
2023-01-06T03:07:03.462Z,0
2023-01-06T03:08:03.104Z,0
2023-01-06T03:09:04.838Z,0
2023-01-06T03:10:05.309Z,0
2023-01-06T03:11:06.365Z,0
2023-01-06T03:12:07.574Z,0
2023-01-06T03:13:07.803Z,0
2023-01-06T03:14:08.297Z,0
2023-01-06T03:15:08.516Z,0
2023-01-06T03:16:09.823Z,0
2023-01-06T03:17:10.306Z,0
2023-01-06T03:18:10.618Z,0
2023-01-06T03:19:11.004Z,0
2023-01-06T03:20:11.362Z,0
2023-01-06T03:21:12.407Z,0
2023-01-06T03:22:13.341Z,0
2023-01-06T03:23:13.269Z,0
2023-01-06T03:24:14.875Z,0
2023-01-06T03:25:15.099Z,0
2023-01-06T03:26:15.738Z,0
2023-01-06T03:27:15.934Z,0
2023-01-06T03:28:16.143Z,0
2023-01-06T03:29:16.367Z,0
2023-01-06T03:30:17.393Z,0
2023-01-06T03:31:18.115Z,0
2023-01-06T03:32:17.523Z,0
2023-01-06T03:33:20.164Z,0
2023-01-06T03:34:19.784Z,0
2023-01-06T03:35:19.991Z,0
2023-01-06T03:36:20.308Z,0
2023-01-06T03:37:20.244Z,0
2023-01-06T03:38:21.482Z,0
2023-01-06T03:39:21.942Z,0
2023-01-06T03:40:22.178Z,0
2023-01-06T03:41:21.934Z,0
2023-01-06T03:42:42.384Z,0
2023-01-06T03:43:23.615Z,0
2023-01-06T03:44:23.453Z,0
2023-01-06T03:45:23.669Z,0
2023-01-06T03:46:24.026Z,0
2023-01-06T03:47:24.556Z,0
2023-01-06T03:48:25.177Z,0
2023-01-06T03:49:25.816Z,0
2023-01-06T03:50:26.775Z,0
2023-01-06T03:51:27.091Z,0
2023-01-06T03:52:27.450Z,0
2023-01-06T03:53:28.443Z,0
2023-01-06T03:54:29.503Z,0
2023-01-06T03:55:29.724Z,0
2023-01-06T03:56:30.330Z,0
2023-01-06T03:57:30.539Z,0
2023-01-06T03:58:30.766Z,0
2023-01-06T03:59:31.782Z,0
2023-01-06T04:00:31.760Z,0
2023-01-06T04:01:33.014Z,0
2023-01-06T04:02:33.579Z,0
2023-01-06T04:03:34.114Z,0
2023-01-06T04:04:34.216Z,0
2023-01-06T04:05:34.709Z,0
2023-01-06T04:06:34.728Z,0
2023-01-06T04:07:34.944Z,0
2023-01-06T04:08:35.166Z,0
2023-01-06T04:09:35.289Z,0
2023-01-06T04:10:36.230Z,0
2023-01-06T04:11:37.553Z,0
2023-01-06T04:12:38.500Z,0
2023-01-06T04:13:39.723Z,0
2023-01-06T04:14:39.957Z,0
2023-01-06T04:15:40.487Z,0
2023-01-06T04:16:41.610Z,0
2023-01-06T04:17:41.524Z,0
2023-01-06T04:18:42.556Z,0
2023-01-06T04:19:43.142Z,0
2023-01-06T04:20:43.793Z,0
2023-01-06T04:21:44.842Z,0
2023-01-06T04:22:45.507Z,0
2023-01-06T04:23:46.146Z,0
2023-01-06T04:24:47.473Z,0
2023-01-06T04:25:50.836Z,0
2023-01-06T04:26:48.891Z,0
2023-01-06T04:27:49.564Z,0
2023-01-06T04:28:50.493Z,0
2023-01-06T04:29:51.023Z,0
2023-01-06T04:30:52.218Z,0
2023-01-06T04:31:52.492Z,0
2023-01-06T04:32:53.139Z,0
2023-01-06T04:33:53.769Z,0
2023-01-06T04:34:54.119Z,0
2023-01-06T04:35:54.319Z,0
2023-01-06T04:36:55.654Z,0
2023-01-06T04:37:55.587Z,0
2023-01-06T04:38:56.637Z,0
2023-01-06T04:39:58.062Z,0
2023-01-06T04:40:58.285Z,0
2023-01-06T04:41:58.393Z,0
2023-01-06T04:42:59.614Z,0
2023-01-06T04:44:03.481Z,0
2023-01-06T04:45:01.151Z,0
2023-01-06T04:46:02.306Z,0
2023-01-06T04:47:02.295Z,0
2023-01-06T04:48:02.689Z,0
2023-01-06T04:49:04.005Z,0
2023-01-06T04:50:04.959Z,0
2023-01-06T04:51:04.874Z,0
2023-01-06T04:52:05.209Z,0
2023-01-06T04:53:05.420Z,0
2023-01-06T04:54:06.327Z,0
2023-01-06T04:55:07.095Z,0
2023-01-06T04:56:07.595Z,0
2023-01-06T04:57:08.200Z,0
2023-01-06T04:58:07.555Z,0
2023-01-06T04:59:09.051Z,0
2023-01-06T05:00:09.355Z,0
2023-01-06T05:01:09.605Z,0
2023-01-06T05:02:10.083Z,0
2023-01-06T05:03:11.011Z,0
2023-01-06T05:04:12.125Z,0
2023-01-06T05:05:12.200Z,0
2023-01-06T05:06:12.581Z,0
2023-01-06T05:07:13.935Z,0
2023-01-06T05:08:14.147Z,0
2023-01-06T05:09:15.112Z,0
2023-01-06T05:10:15.768Z,0
2023-01-06T05:11:16.014Z,0
2023-01-06T05:12:16.370Z,0
2023-01-06T05:13:17.585Z,0
2023-01-06T05:14:20.079Z,0
2023-01-06T05:15:18.489Z,0
2023-01-06T05:16:19.380Z,0
2023-01-06T05:17:20.663Z,0
2023-01-06T05:18:20.644Z,0
2023-01-06T05:19:21.807Z,0
2023-01-06T05:20:22.255Z,0
2023-01-06T05:21:22.610Z,0
2023-01-06T05:22:23.923Z,0
2023-01-06T05:23:24.123Z,0
2023-01-06T05:24:24.615Z,0
2023-01-06T05:25:25.231Z,0
2023-01-06T05:26:25.491Z,0
2023-01-06T05:27:26.133Z,0
2023-01-06T05:28:26.331Z,0
2023-01-06T05:29:26.546Z,0
2023-01-06T05:30:26.989Z,0
2023-01-06T05:31:28.160Z,0
2023-01-06T05:32:28.128Z,0
2023-01-06T05:33:29.326Z,0
2023-01-06T05:34:29.945Z,0
2023-01-06T05:35:29.715Z,0
2023-01-06T05:36:30.944Z,0
2023-01-06T05:37:31.568Z,0
2023-01-06T05:38:34.154Z,0
2023-01-06T05:39:32.506Z,0
2023-01-06T05:40:33.200Z,0
2023-01-06T05:41:32.846Z,0
2023-01-06T05:42:34.182Z,0
2023-01-06T05:43:34.702Z,0
2023-01-06T05:44:34.919Z,0
2023-01-06T05:45:35.217Z,0
2023-01-06T05:46:35.805Z,0
2023-01-06T05:47:35.739Z,0
2023-01-06T05:48:36.960Z,0
2023-01-06T05:49:36.992Z,0
2023-01-06T05:50:37.335Z,0
2023-01-06T05:51:37.246Z,0
2023-01-06T05:52:38.184Z,0
2023-01-06T05:53:38.834Z,0
2023-01-06T05:54:39.064Z,0
2023-01-06T05:55:39.724Z,0
2023-01-06T05:56:40.986Z,0
2023-01-06T05:57:41.057Z,0
2023-01-06T05:58:42.382Z,0
2023-01-06T05:59:42.692Z,0
2023-01-06T06:00:43.693Z,0
2023-01-06T06:01:43.679Z,0
2023-01-06T06:02:43.825Z,0
2023-01-06T06:03:44.149Z,0
2023-01-06T06:04:44.619Z,0
2023-01-06T06:05:45.224Z,0
2023-01-06T06:06:45.151Z,0
2023-01-06T06:07:46.225Z,0
2023-01-06T06:08:47.133Z,0
2023-01-06T06:09:46.778Z,0
2023-01-06T06:10:48.457Z,0
2023-01-06T06:11:48.671Z,0
2023-01-06T06:12:49.690Z,0
2023-01-06T06:13:49.929Z,0
2023-01-06T06:14:50.895Z,0
2023-01-06T06:15:51.391Z,0
2023-01-06T06:16:52.259Z,0
2023-01-06T06:17:52.793Z,0
2023-01-06T06:18:52.999Z,0
2023-01-06T06:19:53.648Z,0
2023-01-06T06:20:53.795Z,0
2023-01-06T06:21:54.436Z,0
2023-01-06T06:22:56.043Z,0
2023-01-06T06:23:57.021Z,0
2023-01-06T06:24:57.242Z,0
2023-01-06T06:25:57.851Z,0
2023-01-06T06:26:57.765Z,0
2023-01-06T06:27:59.144Z,0
2023-01-06T06:28:59.801Z,0
2023-01-06T06:30:00.290Z,0
2023-01-06T06:31:01.905Z,0
2023-01-06T06:32:00.921Z,0
2023-01-06T06:33:02.126Z,4
2023-01-06T06:34:03.343Z,4
2023-01-06T06:35:03.965Z,0
2023-01-06T06:36:04.576Z,0
2023-01-06T06:37:04.499Z,4
2023-01-06T06:38:05.370Z,4
2023-01-06T06:39:05.589Z,4
2023-01-06T06:40:05.573Z,4
2023-01-06T06:41:06.724Z,4
2023-01-06T06:42:07.978Z,8
2023-01-06T06:43:08.307Z,4
2023-01-06T06:44:08.261Z,8
2023-01-06T06:45:09.472Z,8
2023-01-06T06:46:10.343Z,12
2023-01-06T06:47:10.319Z,12
2023-01-06T06:48:10.272Z,16
2023-01-06T06:49:11.255Z,16
2023-01-06T06:50:11.357Z,20
2023-01-06T06:51:12.297Z,20
2023-01-06T06:52:12.513Z,20
2023-01-06T06:53:13.835Z,28
2023-01-06T06:54:13.779Z,28
2023-01-06T06:55:14.005Z,32
2023-01-06T06:56:15.087Z,32
2023-01-06T06:57:16.040Z,32
2023-01-06T06:58:16.362Z,36
2023-01-06T06:59:17.014Z,40
2023-01-06T07:00:17.251Z,40
2023-01-06T07:01:18.882Z,44
2023-01-06T07:02:19.383Z,48
2023-01-06T07:03:19.479Z,52
2023-01-06T07:04:20.222Z,56
2023-01-06T07:05:20.627Z,60
2023-01-06T07:06:20.985Z,68
2023-01-06T07:07:21.190Z,72
2023-01-06T07:08:22.845Z,84
2023-01-06T07:09:22.501Z,92
2023-01-06T07:10:23.416Z,100
2023-01-06T07:11:23.516Z,108
2023-01-06T07:12:23.888Z,116
2023-01-06T07:13:25.226Z,124
2023-01-06T07:14:25.166Z,136
2023-01-06T07:15:26.392Z,144
2023-01-06T07:16:27.339Z,156
2023-01-06T07:17:28.269Z,168
2023-01-06T07:18:28.486Z,180
2023-01-06T07:19:29.423Z,192
2023-01-06T07:20:30.787Z,204
2023-01-06T07:21:31.525Z,216
2023-01-06T07:22:31.742Z,228
2023-01-06T07:23:32.397Z,244
2023-01-06T07:24:32.061Z,256
2023-01-06T07:25:32.990Z,272
2023-01-06T07:26:33.634Z,288
2023-01-06T07:27:33.870Z,300
2023-01-06T07:28:34.236Z,316
2023-01-06T07:29:35.454Z,328
2023-01-06T07:30:35.483Z,344
2023-01-06T07:31:36.119Z,360
2023-01-06T07:32:36.349Z,376
2023-01-06T07:33:36.584Z,392
2023-01-06T07:34:37.529Z,408
2023-01-06T07:35:38.276Z,424
2023-01-06T07:36:39.900Z,440
2023-01-06T07:37:40.449Z,460
2023-01-06T07:38:40.823Z,480
2023-01-06T07:39:41.763Z,500
2023-01-06T07:40:42.329Z,516
2023-01-06T07:41:42.475Z,536
2023-01-06T07:42:42.963Z,556
2023-01-06T07:43:43.390Z,584
2023-01-06T07:44:44.611Z,612
2023-01-06T07:45:44.273Z,656
2023-01-06T07:46:45.308Z,708
2023-01-06T07:47:45.956Z,796
2023-01-06T07:48:46.619Z,964
2023-01-06T07:49:47.562Z,1200
2023-01-06T07:50:49.406Z,1420
2023-01-06T07:51:49.520Z,1468
2023-01-06T07:52:50.357Z,1700
2023-01-06T07:53:50.471Z,2152
2023-01-06T07:54:51.409Z,2612
2023-01-06T07:55:51.319Z,2984
2023-01-06T07:56:52.995Z,2868
2023-01-06T07:57:52.958Z,2804
2023-01-06T07:58:53.661Z,2908
2023-01-06T07:59:53.876Z,3424
2023-01-06T08:00:54.233Z,3808
2023-01-06T08:01:55.139Z,4068
2023-01-06T08:02:55.792Z,4320
2023-01-06T08:03:55.538Z,3620
2023-01-06T08:04:58.324Z,2688
2023-01-06T08:05:57.512Z,2304
2023-01-06T08:06:58.561Z,2004
2023-01-06T08:07:59.503Z,1960
2023-01-06T08:09:00.576Z,1916
2023-01-06T08:10:01.222Z,2196
2023-01-06T08:11:02.176Z,2244
2023-01-06T08:12:03.651Z,2112
2023-01-06T08:13:04.150Z,2736
2023-01-06T08:14:04.503Z,3044
2023-01-06T08:15:04.994Z,2844
2023-01-06T08:16:06.266Z,2788
2023-01-06T08:17:06.831Z,2604
2023-01-06T08:18:06.767Z,1760
2023-01-06T08:19:07.984Z,1384
2023-01-06T08:20:08.325Z,1192
2023-01-06T08:21:08.950Z,1128
2023-01-06T08:22:09.362Z,1104
2023-01-06T08:23:09.612Z,1068
2023-01-06T08:24:09.662Z,1088
2023-01-06T08:25:10.887Z,1244
2023-01-06T08:26:11.096Z,1492
2023-01-06T08:27:11.460Z,1700
2023-01-06T08:28:11.671Z,1624
2023-01-06T08:29:13.011Z,1724
2023-01-06T08:30:12.969Z,2124
2023-01-06T08:31:13.347Z,2004
2023-01-06T08:32:21.880Z,1708
2023-01-06T08:33:14.899Z,1656
2023-01-06T08:34:15.142Z,1396
2023-01-06T08:35:15.656Z,1176
2023-01-06T08:36:15.717Z,1148
2023-01-06T08:37:16.404Z,1092
2023-01-06T08:38:16.336Z,1044
2023-01-06T08:39:17.621Z,1020
2023-01-06T08:40:17.286Z,996
2023-01-06T08:41:18.229Z,1008
2023-01-06T08:42:19.179Z,1060
2023-01-06T08:43:19.398Z,1076
2023-01-06T08:44:19.629Z,1108
2023-01-06T08:45:20.548Z,1228
2023-01-06T08:46:21.032Z,1472
2023-01-06T08:47:21.069Z,1880
2023-01-06T08:48:22.015Z,2296
2023-01-06T08:49:22.525Z,2020
2023-01-06T08:50:22.749Z,1952
2023-01-06T08:51:23.133Z,1948
2023-01-06T08:52:23.799Z,1876
2023-01-06T08:53:24.053Z,1652
2023-01-06T08:54:24.661Z,1528
2023-01-06T08:55:24.320Z,1848
2023-01-06T08:56:25.540Z,1764
2023-01-06T08:57:26.318Z,1432
2023-01-06T08:58:27.549Z,1844
2023-01-06T08:59:28.612Z,2028
2023-01-06T09:00:29.132Z,2092
2023-01-06T09:01:29.940Z,2312
2023-01-06T09:02:30.291Z,2132
2023-01-06T09:03:29.691Z,2132
2023-01-06T09:04:30.912Z,1900
2023-01-06T09:05:30.959Z,1908
2023-01-06T09:06:32.595Z,2172
2023-01-06T09:07:33.231Z,2388
2023-01-06T09:08:33.469Z,2428
2023-01-06T09:09:34.072Z,2276
2023-01-06T09:10:34.593Z,1848
2023-01-06T09:11:34.810Z,1652
2023-01-06T09:12:35.222Z,1600
2023-01-06T09:13:35.738Z,1624
2023-01-06T09:14:36.053Z,1540
2023-01-06T09:15:36.281Z,1480
2023-01-06T09:16:37.302Z,1940
2023-01-06T09:17:37.805Z,1884
2023-01-06T09:18:37.501Z,2244
2023-01-06T09:19:37.864Z,2484
2023-01-06T09:20:39.105Z,2816
2023-01-06T09:21:39.163Z,3180
2023-01-06T09:22:39.571Z,3408
2023-01-06T09:23:39.803Z,3216
2023-01-06T09:24:40.472Z,2720
2023-01-06T09:25:41.028Z,2580
2023-01-06T09:26:41.555Z,3264
2023-01-06T09:27:42.185Z,3532
2023-01-06T09:28:42.400Z,3560
2023-01-06T09:29:42.460Z,3792
2023-01-06T09:30:43.673Z,4244
2023-01-06T09:31:44.384Z,5032
2023-01-06T09:32:45.914Z,5380
2023-01-06T09:33:46.879Z,3936
2023-01-06T09:34:46.818Z,3596
2023-01-06T09:35:47.471Z,2916
2023-01-06T09:36:48.529Z,2912
2023-01-06T09:37:49.173Z,3428
2023-01-06T09:38:49.398Z,3168
2023-01-06T09:39:50.027Z,3000
2023-01-06T09:40:50.264Z,3984
2023-01-06T09:41:50.520Z,4212
2023-01-06T09:42:51.411Z,4296
2023-01-06T09:43:51.929Z,4592
2023-01-06T09:44:52.571Z,5576
2023-01-06T09:45:52.524Z,6304
2023-01-06T09:46:53.715Z,6064
2023-01-06T09:47:53.656Z,7396
2023-01-06T09:48:54.997Z,6164
2023-01-06T09:49:54.637Z,5048
2023-01-06T09:50:55.079Z,6112
2023-01-06T09:51:56.172Z,6292
2023-01-06T09:52:56.912Z,5932
2023-01-06T09:53:57.121Z,5804
2023-01-06T09:54:58.473Z,4460
2023-01-06T09:55:58.703Z,3396
2023-01-06T09:56:58.929Z,3900
2023-01-06T09:57:59.119Z,5244
2023-01-06T09:58:59.170Z,6028
2023-01-06T10:00:00.818Z,6244
2023-01-06T10:01:01.039Z,5540
2023-01-06T10:02:02.250Z,5588
2023-01-06T10:03:01.254Z,2624
2023-01-06T10:04:03.089Z,5236
2023-01-06T10:05:02.823Z,3784
2023-01-06T10:06:04.039Z,4668
2023-01-06T10:07:04.598Z,5356
2023-01-06T10:08:05.374Z,4536
2023-01-06T10:09:05.300Z,2944
2023-01-06T10:10:06.347Z,3160
2023-01-06T10:11:07.014Z,5496
2023-01-06T10:12:08.561Z,7768
2023-01-06T10:13:08.656Z,7604
2023-01-06T10:14:09.868Z,5172
2023-01-06T10:15:11.225Z,4296
2023-01-06T10:16:11.784Z,5252
2023-01-06T10:17:12.138Z,6600
2023-01-06T10:18:12.106Z,8536
2023-01-06T10:19:13.047Z,10096
2023-01-06T10:20:13.553Z,10780
2023-01-06T10:21:13.872Z,9880
2023-01-06T10:22:14.228Z,9300
2023-01-06T10:23:15.319Z,9016
2023-01-06T10:24:15.835Z,8788
2023-01-06T10:25:16.449Z,9924
2023-01-06T10:26:16.679Z,10756
2023-01-06T10:27:19.708Z,9920
2023-01-06T10:28:18.814Z,9464
2023-01-06T10:29:19.801Z,9896
2023-01-06T10:30:20.201Z,10712
2023-01-06T10:31:21.066Z,11268
2023-01-06T10:32:22.377Z,11776
2023-01-06T10:33:22.918Z,10684
2023-01-06T10:34:22.629Z,10064
2023-01-06T10:35:23.586Z,10220
2023-01-06T10:36:24.622Z,10784
2023-01-06T10:37:25.593Z,10556
2023-01-06T10:38:26.207Z,10596
2023-01-06T10:39:26.224Z,12060
2023-01-06T10:40:26.603Z,11224
2023-01-06T10:41:26.563Z,9740
2023-01-06T10:42:27.792Z,10248
2023-01-06T10:43:28.459Z,8756
2023-01-06T10:44:28.957Z,10268
2023-01-06T10:45:29.701Z,10928
2023-01-06T10:46:30.196Z,9472
2023-01-06T10:47:30.288Z,7832
2023-01-06T10:48:30.896Z,7768
2023-01-06T10:49:31.129Z,8860
2023-01-06T10:50:31.745Z,9512
2023-01-06T10:51:31.823Z,10396
2023-01-06T10:52:33.182Z,9748
2023-01-06T10:53:34.109Z,6632
2023-01-06T10:54:34.364Z,5972
2023-01-06T10:55:35.729Z,6604
2023-01-06T10:56:36.252Z,9172
2023-01-06T10:57:36.204Z,9740
2023-01-06T10:58:36.377Z,10704
2023-01-06T10:59:37.608Z,11164
2023-01-06T11:00:38.411Z,11036
2023-01-06T11:01:40.806Z,11356
2023-01-06T11:02:39.329Z,12028
2023-01-06T11:03:47.167Z,11996
2023-01-06T11:04:46.821Z,9620
2023-01-06T11:05:48.098Z,12056
2023-01-06T11:06:48.604Z,11112
2023-01-06T11:07:49.230Z,10548
2023-01-06T11:08:49.417Z,9884
2023-01-06T11:09:50.731Z,8984
2023-01-06T11:10:50.792Z,8424
2023-01-06T11:11:51.040Z,8924
2023-01-06T11:12:51.270Z,9448
2023-01-06T11:13:51.921Z,8156
2023-01-06T11:14:52.150Z,7076
2023-01-06T11:15:52.212Z,5668
2023-01-06T11:16:53.021Z,5668
2023-01-06T11:17:53.687Z,7180
2023-01-06T11:18:55.287Z,8036
2023-01-06T11:19:56.230Z,10656
2023-01-06T11:20:56.729Z,10852
2023-01-06T11:21:57.685Z,10808
2023-01-06T11:22:58.322Z,10532
2023-01-06T11:23:58.159Z,10112
2023-01-06T11:24:58.834Z,5636
2023-01-06T11:25:59.612Z,6468
2023-01-06T11:27:01.155Z,5136
2023-01-06T11:28:01.372Z,6040
2023-01-06T11:29:01.742Z,8640
2023-01-06T11:30:02.669Z,9984
2023-01-06T11:31:03.033Z,10220
2023-01-06T11:32:02.979Z,10944
2023-01-06T11:33:04.207Z,11428
2023-01-06T11:34:04.343Z,10872
2023-01-06T11:35:05.603Z,10712
2023-01-06T11:36:05.547Z,8064
2023-01-06T11:37:06.821Z,6432
2023-01-06T11:38:07.166Z,7280
2023-01-06T11:39:07.782Z,5700
2023-01-06T11:40:17.578Z,3272
2023-01-06T11:41:09.345Z,3000
2023-01-06T11:42:10.005Z,3656
2023-01-06T11:43:11.304Z,6412
2023-01-06T11:44:11.791Z,8024
2023-01-06T11:45:12.339Z,6164
2023-01-06T11:46:13.077Z,3272
2023-01-06T11:47:13.181Z,2532
2023-01-06T11:48:13.397Z,2480
2023-01-06T11:49:16.088Z,2624
2023-01-06T11:50:15.147Z,3204
2023-01-06T11:51:15.123Z,5528
2023-01-06T11:52:15.221Z,6652
2023-01-06T11:53:16.453Z,7080
2023-01-06T11:54:17.290Z,5308
2023-01-06T11:55:19.474Z,3684
2023-01-06T11:56:19.244Z,4392
2023-01-06T11:57:19.678Z,5792
2023-01-06T11:58:21.172Z,6304
2023-01-06T11:59:21.791Z,5696
2023-01-06T12:00:22.291Z,5172
2023-01-06T12:01:22.651Z,4288
2023-01-06T12:02:23.626Z,3824
2023-01-06T12:03:24.086Z,4696
2023-01-06T12:04:23.892Z,5940
2023-01-06T12:05:24.871Z,6644
2023-01-06T12:06:25.499Z,6456
2023-01-06T12:07:26.763Z,5128
2023-01-06T12:08:26.845Z,4384
2023-01-06T12:09:27.920Z,4676
2023-01-06T12:10:28.131Z,5668
2023-01-06T12:11:29.469Z,5900
2023-01-06T12:12:29.689Z,5808
2023-01-06T12:13:29.635Z,5612
2023-01-06T12:14:41.682Z,6008
2023-01-06T12:15:41.323Z,6548
2023-01-06T12:16:43.021Z,5924
2023-01-06T12:17:44.682Z,5936
2023-01-06T12:18:43.928Z,6172
2023-01-06T12:19:44.542Z,6324
2023-01-06T12:20:44.777Z,5948
2023-01-06T12:21:44.713Z,6148
2023-01-06T12:22:45.686Z,6204
2023-01-06T12:23:46.752Z,6372
2023-01-06T12:24:46.912Z,6760
2023-01-06T12:25:48.140Z,6840
2023-01-06T12:26:48.778Z,6528
2023-01-06T12:27:48.585Z,6944
2023-01-06T12:28:49.809Z,6188
2023-01-06T12:29:49.879Z,6752
2023-01-06T12:30:51.109Z,6012
2023-01-06T12:31:51.389Z,4996
2023-01-06T12:32:52.620Z,4588
2023-01-06T12:33:52.843Z,4688
2023-01-06T12:34:52.798Z,5596
2023-01-06T12:35:55.578Z,5684
2023-01-06T12:36:54.588Z,5256
2023-01-06T12:37:55.836Z,5608
2023-01-06T12:38:56.478Z,5924
2023-01-06T12:39:56.532Z,5932
2023-01-06T12:40:57.758Z,5912
2023-01-06T12:41:58.130Z,6084
2023-01-06T12:42:58.670Z,6440
2023-01-06T12:43:59.353Z,6600
2023-01-06T12:45:00.214Z,6752
2023-01-06T12:46:09.068Z,6628
2023-01-06T12:47:02.148Z,6096
2023-01-06T12:48:05.054Z,6364
2023-01-06T12:49:04.003Z,5900
2023-01-06T12:50:04.969Z,5652
2023-01-06T12:51:05.643Z,5516
2023-01-06T12:52:06.607Z,5292
2023-01-06T12:53:20.743Z,4000
2023-01-06T12:54:08.122Z,3556
2023-01-06T12:55:08.100Z,3596
2023-01-06T12:56:07.743Z,3424
2023-01-06T12:57:09.477Z,3148
2023-01-06T12:58:09.705Z,2944
2023-01-06T12:59:09.679Z,3112
2023-01-06T13:00:10.785Z,3304
2023-01-06T13:01:11.292Z,3652
2023-01-06T13:02:11.794Z,3888
2023-01-06T13:03:12.574Z,3780
2023-01-06T13:04:13.612Z,3228
2023-01-06T13:05:13.758Z,3060
2023-01-06T13:06:14.012Z,3096
2023-01-06T13:07:15.253Z,3632
2023-01-06T13:08:15.192Z,4136
2023-01-06T13:09:17.935Z,3884
2023-01-06T13:10:17.434Z,3764
2023-01-06T13:11:17.373Z,4288
2023-01-06T13:12:18.021Z,4256
2023-01-06T13:13:18.238Z,3972
2023-01-06T13:14:18.153Z,3936
2023-01-06T13:15:19.181Z,3864
2023-01-06T13:16:19.543Z,3920
2023-01-06T13:17:19.871Z,3864
2023-01-06T13:18:20.199Z,3528
2023-01-06T13:19:20.435Z,3476
2023-01-06T13:20:20.735Z,4228
2023-01-06T13:21:21.675Z,4280
2023-01-06T13:22:21.943Z,3980
2023-01-06T13:23:21.889Z,4064
2023-01-06T13:24:23.234Z,4112
2023-01-06T13:25:24.095Z,3976
2023-01-06T13:26:24.591Z,3656
2023-01-06T13:27:24.403Z,3648
2023-01-06T13:28:25.661Z,3456
2023-01-06T13:29:25.335Z,3564
2023-01-06T13:30:26.683Z,3772
2023-01-06T13:31:26.684Z,3752
2023-01-06T13:32:27.629Z,3624
2023-01-06T13:33:28.015Z,3896
2023-01-06T13:34:28.957Z,4216
2023-01-06T13:35:29.486Z,4348
2023-01-06T13:36:29.697Z,4364
2023-01-06T13:37:29.939Z,4100
2023-01-06T13:38:30.181Z,3832
2023-01-06T13:39:30.528Z,3732
2023-01-06T13:40:30.570Z,3888
2023-01-06T13:41:32.084Z,4112
2023-01-06T13:42:32.705Z,4316
2023-01-06T13:43:32.655Z,4300
2023-01-06T13:44:32.631Z,4376
2023-01-06T13:45:34.420Z,4236
2023-01-06T13:46:34.590Z,4332
2023-01-06T13:47:34.538Z,4036
2023-01-06T13:48:35.943Z,3552
2023-01-06T13:49:36.457Z,3500
2023-01-06T13:50:36.993Z,3640
2023-01-06T13:51:37.213Z,3848
2023-01-06T13:52:37.154Z,3812
2023-01-06T13:53:36.853Z,3912
2023-01-06T13:54:38.199Z,4136
2023-01-06T13:55:38.783Z,4180
2023-01-06T13:56:40.378Z,4096
2023-01-06T13:57:39.965Z,3940
2023-01-06T13:58:39.934Z,3840
2023-01-06T13:59:41.443Z,3704
2023-01-06T14:00:41.495Z,3536
2023-01-06T14:01:42.229Z,3480
2023-01-06T14:02:43.567Z,3412
2023-01-06T14:03:43.270Z,3480
2023-01-06T14:04:43.943Z,3628
2023-01-06T14:05:44.037Z,3624
2023-01-06T14:06:46.011Z,3512
2023-01-06T14:07:45.537Z,3512
2023-01-06T14:08:45.189Z,3432